地図

経路データ

SID SEASON NUMBER BASIN SUBBASIN NAME ISO_TIME NATURE LAT LON WMO_WIND WMO_PRES WMO_AGENCY TRACK_TYPE DIST2LAND LANDFALL IFLAG USA_AGENCY USA_ATCF_ID USA_LAT USA_LON USA_RECORD USA_STATUS USA_WIND USA_PRES USA_SSHS USA_R34_NE USA_R34_SE USA_R34_SW USA_R34_NW USA_R50_NE USA_R50_SE USA_R50_SW USA_R50_NW USA_R64_NE USA_R64_SE USA_R64_SW USA_R64_NW USA_POCI USA_ROCI USA_RMW USA_EYE TOKYO_LAT TOKYO_LON TOKYO_GRADE TOKYO_WIND TOKYO_PRES TOKYO_R50_DIR TOKYO_R50_LONG TOKYO_R50_SHORT TOKYO_R30_DIR TOKYO_R30_LONG TOKYO_R30_SHORT TOKYO_LAND CMA_LAT CMA_LON CMA_CAT CMA_WIND CMA_PRES HKO_LAT HKO_LON HKO_CAT HKO_WIND HKO_PRES NEWDELHI_LAT NEWDELHI_LON NEWDELHI_GRADE NEWDELHI_WIND NEWDELHI_PRES NEWDELHI_CI NEWDELHI_DP NEWDELHI_POCI REUNION_LAT REUNION_LON REUNION_TYPE REUNION_WIND REUNION_PRES REUNION_TNUM REUNION_CI REUNION_RMW REUNION_R34_NE REUNION_R34_SE REUNION_R34_SW REUNION_R34_NW REUNION_R50_NE REUNION_R50_SE REUNION_R50_SW REUNION_R50_NW REUNION_R64_NE REUNION_R64_SE REUNION_R64_SW REUNION_R64_NW BOM_LAT BOM_LON BOM_TYPE BOM_WIND BOM_PRES BOM_TNUM BOM_CI BOM_RMW BOM_R34_NE BOM_R34_SE BOM_R34_SW BOM_R34_NW BOM_R50_NE BOM_R50_SE BOM_R50_SW BOM_R50_NW BOM_R64_NE BOM_R64_SE BOM_R64_SW BOM_R64_NW BOM_ROCI BOM_POCI BOM_EYE BOM_POS_METHOD BOM_PRES_METHOD NADI_LAT NADI_LON NADI_CAT NADI_WIND NADI_PRES WELLINGTON_LAT WELLINGTON_LON WELLINGTON_WIND WELLINGTON_PRES DS824_LAT DS824_LON DS824_STAGE DS824_WIND DS824_PRES TD9636_LAT TD9636_LON TD9636_STAGE TD9636_WIND TD9636_PRES TD9635_LAT TD9635_LON TD9635_WIND TD9635_PRES TD9635_ROCI NEUMANN_LAT NEUMANN_LON NEUMANN_CLASS NEUMANN_WIND NEUMANN_PRES MLC_LAT MLC_LON MLC_CLASS MLC_WIND MLC_PRES USA_GUST BOM_GUST BOM_GUST_PER REUNION_GUST REUNION_GUST_PER USA_SEAHGT USA_SEARAD_NE USA_SEARAD_SE USA_SEARAD_SW USA_SEARAD_NW STORM_SPEED STORM_DIR
1974246N19250 1974 97 EP MM NOT_NAMED 1974-09-03 00:00:00 NR 18.8000 -110.000 main 458 448 O_________O___ jtwc_ep EP191974 18.8000 -110.000 30 -1 18.8000 -110.000 1 30 10 281
1974246N19250 1974 97 EP MM NOT_NAMED 1974-09-03 03:00:00 NR 18.9006 -110.541 main 450 443 P_________P___ EP191974 18.9004 -110.560 30 -1 18.9009 -110.523 1 30 10 281
1974246N19250 1974 97 EP MM NOT_NAMED 1974-09-03 06:00:00 NR 19.0004 -111.074 main 450 445 O_________P___ jtwc_ep EP191974 19.0000 -111.100 30 -1 19.0009 -111.047 1 30 10 281
1974246N19250 1974 97 EP MM NOT_NAMED 1974-09-03 09:00:00 NR 19.1001 -111.590 main 456 456 P_________P___ EP191974 19.0998 -111.608 30 -1 19.1004 -111.573 1 30 10 282
1974246N19250 1974 97 EP MM NOT_NAMED 1974-09-03 12:00:00 NR 19.2000 -112.100 main 467 467 O_________O___ jtwc_ep EP191974 19.2000 -112.100 30 -1 19.2000 -112.100 1 30 10 282
1974246N19250 1974 97 EP MM NOT_NAMED 1974-09-03 15:00:00 NR 19.3000 -112.617 main 484 484 P_________P___ EP191974 19.2999 -112.608 30 -1 19.3000 -112.626 1 30 10 282
1974246N19250 1974 97 EP MM NOT_NAMED 1974-09-03 18:00:00 NR 19.4001 -113.116 main 506 506 O_________P___ jtwc_ep EP191974 19.4000 -113.100 30 -1 19.4001 -113.132 1 30 9 282
1974246N19250 1974 97 EP MM NOT_NAMED 1974-09-03 21:00:00 NR 19.5001 -113.589 main 532 532 P_________P___ EP191974 19.5000 -113.580 30 -1 19.5001 -113.598 1 30 9 283
1974246N19250 1974 97 EP MM NOT_NAMED 1974-09-04 00:00:00 NR 19.6000 -114.000 main 554 554 O_________O___ jtwc_ep EP191974 19.6000 -114.000 30 -1 19.6000 -114.000 1 30 7 286
1974246N19250 1974 97 EP MM NOT_NAMED 1974-09-04 03:00:00 NR 19.7037 -114.330 main 571 571 P_________P___ EP191974 19.6999 -114.338 30 -1 19.7075 -114.323 1 30 6 290
1974246N19250 1974 97 EP MM NOT_NAMED 1974-09-04 06:00:00 NR 19.8071 -114.591 main 588 588 O_________P___ jtwc_ep EP191974 19.8000 -114.600 30 -1 19.8142 -114.583 1 30 5 294
1974246N19250 1974 97 EP MM NOT_NAMED 1974-09-04 09:00:00 NR 19.9069 -114.808 main 599 595 P_________P___ EP191974 19.8999 -114.815 30 -1 19.9139 -114.801 1 30 4 297
1974246N19250 1974 97 EP MM NOT_NAMED 1974-09-04 12:00:00 NR 20.0000 -115.000 main 601 597 O_________O___ jtwc_ep EP191974 20.0000 -115.000 30 -1 20.0000 -115.000 1 30 4 297
1974246N19250 1974 97 EP MM NOT_NAMED 1974-09-04 15:00:00 NR 20.0998 -115.215 main 603 600 P_________P___ EP191974 20.1150 -115.200 27 -1 20.0846 -115.231 1 27 4 294
1974246N19250 1974 97 EP MM NOT_NAMED 1974-09-04 18:00:00 NR 20.1762 -115.422 main 606 606 O_________P___ jtwc_ep EP191974 20.2000 -115.400 25 -1 20.1525 -115.445 1 25 4 286
1974246N19250 1974 97 EP MM NOT_NAMED 1974-09-04 21:00:00 NR 20.2083 -115.626 main 618 618 P_________P___ EP191974 20.2225 -115.615 22 -1 20.1940 -115.637 1 22 4 274
1974246N19250 1974 97 EP MM NOT_NAMED 1974-09-05 00:00:00 NR 20.2000 -115.800 main 630 630 O_________O___ jtwc_ep EP191974 20.2000 -115.800 20 -1 20.2000 -115.800 1 20 3 261
1974246N19250 1974 97 EP MM NOT_NAMED 1974-09-05 03:00:00 NR 20.1649 -115.926 main 636 636 P_________P___ EP191974 20.1650 -115.915 20 -1 20.1649 -115.937 1 20 2 244
1974246N19250 1974 97 EP MM NOT_NAMED 1974-09-05 06:00:00 NR 20.0974 -116.023 main 651 651 O_________P___ jtwc_ep EP191974 20.1000 -116.000 20 -1 20.0949 -116.045 1 20 2 228
1974246N19250 1974 97 EP MM NOT_NAMED 1974-09-05 09:00:00 NR 20.0050 -116.119 main 667 667 P_________P___ EP191974 20.0075 -116.108 20 -1 20.0024 -116.131 1 20 3 220
1974246N19250 1974 97 EP MM NOT_NAMED 1974-09-05 12:00:00 NR 19.9000 -116.200 main 682 682 O_________O___ jtwc_ep EP191974 19.9000 -116.200 20 -1 19.9000 -116.200 1 20 2 214
1974246N19250 1974 97 EP MM NOT_NAMED 1974-09-05 15:00:00 NR 19.8076 -116.259 main 697 697 P_________P___ EP191974 19.8000 -116.257 20 -1 19.8153 -116.260 1 20 2 208
1974246N19250 1974 97 EP MM NOT_NAMED 1974-09-05 18:00:00 NR 19.7112 -116.304 main 706 706 O_________P___ jtwc_ep EP191974 19.7000 -116.300 20 -1 19.7224 -116.307 1 20 2 202
1974246N19250 1974 97 EP MM NOT_NAMED 1974-09-05 21:00:00 NR 19.6129 -116.347 main 715 715 P_________P___ EP191974 19.6075 -116.342 20 -1 19.6184 -116.351 1 20 2 204
1974246N19250 1974 97 EP MM NOT_NAMED 1974-09-06 00:00:00 NR 19.5000 -116.400 main 730 730 O_________O___ jtwc_ep EP191974 19.5000 -116.400 20 -1 19.5000 -116.400 1 20 3 207
1974246N19250 1974 97 EP MM NOT_NAMED 1974-09-06 03:00:00 NR 19.3569 -116.488 main 745 745 P_________P___ EP191974 19.3575 -116.500 20 -1 19.3563 -116.476 1 20 3 209
1974246N19250 1974 97 EP MM NOT_NAMED 1974-09-06 06:00:00 NR 19.2000 -116.579 main 770 770 O_________P___ jtwc_ep EP191974 19.2000 -116.600 20 -1 19.2000 -116.558 1 20 3 205
1974246N19250 1974 97 EP MM NOT_NAMED 1974-09-06 09:00:00 NR 19.0431 -116.646 main 788 788 P_________P___ EP191974 19.0425 -116.657 20 -1 19.0438 -116.635 1 20 3 201
1974246N19250 1974 97 EP MM NOT_NAMED 1974-09-06 12:00:00 NR 18.9000 -116.700 main 803 803 O_________O___ jtwc_ep EP191974 18.9000 -116.700 20 -1 18.9000 -116.700 1 20 3 200
1974246N19250 1974 97 EP MM NOT_NAMED 1974-09-06 15:00:00 NR 18.7853 -116.751 main 818 818 P_________P___ EP191974 18.7925 -116.758 20 -1 18.7781 -116.745 1 20 2 201
1974246N19250 1974 97 EP MM NOT_NAMED 1974-09-06 18:00:00 NR 18.6875 -116.786 main 827 827 O_________P___ jtwc_ep EP191974 18.7000 -116.800 20 -1 18.6750 -116.772 1 20 2 194
1974246N19250 1974 97 EP MM NOT_NAMED 1974-09-06 21:00:00 NR 18.5934 -116.799 main 837 837 P_________P___ EP191974 18.6025 -116.810 20 -1 18.5844 -116.789 1 20 2 0
1974246N19250 1974 97 EP MM NOT_NAMED 1974-09-07 00:00:00 NR 18.5000 -116.800 main 846 O_________O___ jtwc_ep EP191974 18.5000 -116.800 20 -1 18.5000 -116.800 1 20 2 195

IBTrACS Databaseについて

本データベースは、米国NOAAが公開する1842年以降の世界の熱帯低気圧のベストトラックデータアーカイブInternational Best Track Archive for Climate Stewardship (IBTrACS)を、ウェブで閲覧しやすい形式に変換したものです。

最終更新日:2021-12-03